sensor_id;sensor_type;location;lat;lon;timestamp;pressure;altitude;pressure_sealevel;temperature;humidity
63097;BME280;49185;42.320;23.198;2023-05-24T00:01:34;94672.63;;;8.88;93.53
63097;BME280;49185;42.320;23.198;2023-05-24T00:04:00;94668.47;;;9.09;92.32
63097;BME280;49185;42.320;23.198;2023-05-24T00:06:26;94672.66;;;9.05;92.47
63097;BME280;49185;42.320;23.198;2023-05-24T00:08:52;94674.25;;;8.89;92.50
63097;BME280;49185;42.320;23.198;2023-05-24T00:11:18;94672.44;;;8.78;93.73
63097;BME280;49185;42.320;23.198;2023-05-24T00:13:43;94672.25;;;8.97;93.11
63097;BME280;49185;42.320;23.198;2023-05-24T00:16:09;94666.09;;;8.79;93.44
63097;BME280;49185;42.320;23.198;2023-05-24T00:18:35;94667.09;;;8.61;94.17
63097;BME280;49185;42.320;23.198;2023-05-24T00:21:00;94667.25;;;8.54;94.96
63097;BME280;49185;42.320;23.198;2023-05-24T00:23:26;94663.13;;;8.47;96.25
63097;BME280;49185;42.320;23.198;2023-05-24T00:25:51;94666.34;;;8.37;97.07
63097;BME280;49185;42.320;23.198;2023-05-24T00:28:17;94659.03;;;8.27;97.59
63097;BME280;49185;42.320;23.198;2023-05-24T00:30:42;94661.91;;;8.26;98.38
63097;BME280;49185;42.320;23.198;2023-05-24T00:33:08;94660.78;;;8.22;98.00
63097;BME280;49185;42.320;23.198;2023-05-24T00:35:33;94660.28;;;8.25;98.60
63097;BME280;49185;42.320;23.198;2023-05-24T00:37:59;94647.84;;;8.25;98.20
63097;BME280;49185;42.320;23.198;2023-05-24T00:40:25;94655.53;;;8.27;98.11
63097;BME280;49185;42.320;23.198;2023-05-24T00:42:50;94662.69;;;8.38;97.32
63097;BME280;49185;42.320;23.198;2023-05-24T00:45:16;94661.16;;;8.54;96.63
63097;BME280;49185;42.320;23.198;2023-05-24T00:47:41;94658.69;;;8.64;95.66
63097;BME280;49185;42.320;23.198;2023-05-24T00:50:07;94651.91;;;9.02;93.19
63097;BME280;49185;42.320;23.198;2023-05-24T00:52:34;94650.94;;;9.08;92.04
63097;BME280;49185;42.320;23.198;2023-05-24T00:55:00;94653.66;;;9.13;91.74
63097;BME280;49185;42.320;23.198;2023-05-24T00:57:26;94666.75;;;8.69;93.00
63097;BME280;49185;42.320;23.198;2023-05-24T00:59:51;94674.69;;;8.29;96.44
63097;BME280;49185;42.320;23.198;2023-05-24T01:02:17;94674.28;;;7.96;98.62
63097;BME280;49185;42.320;23.198;2023-05-24T01:04:43;94666.28;;;7.79;99.21
63097;BME280;49185;42.320;23.198;2023-05-24T01:07:17;94664.69;;;7.67;99.99
63097;BME280;49185;42.320;23.198;2023-05-24T01:13:05;94662.84;;;8.20;98.34
63097;BME280;49185;42.320;23.198;2023-05-24T01:18:25;94664.66;;;8.31;96.51
63097;BME280;49185;42.320;23.198;2023-05-24T01:21:00;94664.69;;;8.19;96.64
63097;BME280;49185;42.320;23.198;2023-05-24T01:26:43;94667.41;;;7.84;98.55
63097;BME280;49185;42.320;23.198;2023-05-24T01:29:12;94669.47;;;7.93;99.04
63097;BME280;49185;42.320;23.198;2023-05-24T01:31:39;94676.72;;;7.98;98.56
63097;BME280;49185;42.320;23.198;2023-05-24T01:34:05;94679.47;;;7.91;98.30
63097;BME280;49185;42.320;23.198;2023-05-24T01:36:30;94678.34;;;7.75;99.24
63097;BME280;49185;42.320;23.198;2023-05-24T01:38:56;94682.75;;;7.58;100.00
63097;BME280;49185;42.320;23.198;2023-05-24T01:44:06;94684.22;;;7.54;100.00
63097;BME280;49185;42.320;23.198;2023-05-24T01:46:37;94686.66;;;7.55;100.00
63097;BME280;49185;42.320;23.198;2023-05-24T01:51:40;94690.81;;;7.51;100.00
63097;BME280;49185;42.320;23.198;2023-05-24T01:54:09;94683.88;;;7.50;100.00
63097;BME280;49185;42.320;23.198;2023-05-24T01:56:36;94683.44;;;7.53;100.00
63097;BME280;49185;42.320;23.198;2023-05-24T01:59:05;94689.31;;;7.55;100.00
63097;BME280;49185;42.320;23.198;2023-05-24T02:01:31;94682.50;;;7.59;100.00
63097;BME280;49185;42.320;23.198;2023-05-24T02:03:58;94679.06;;;7.59;100.00
63097;BME280;49185;42.320;23.198;2023-05-24T02:06:23;94679.28;;;7.57;100.00
63097;BME280;49185;42.320;23.198;2023-05-24T02:08:48;94681.69;;;7.59;100.00
63097;BME280;49185;42.320;23.198;2023-05-24T02:11:14;94671.69;;;7.85;99.55
63097;BME280;49185;42.320;23.198;2023-05-24T02:13:39;94683.28;;;7.95;97.11
63097;BME280;49185;42.320;23.198;2023-05-24T02:16:05;94684.34;;;7.59;98.89
63097;BME280;49185;42.320;23.198;2023-05-24T02:18:30;94688.84;;;7.35;100.00
63097;BME280;49185;42.320;23.198;2023-05-24T02:20:56;94682.25;;;7.26;100.00
63097;BME280;49185;42.320;23.198;2023-05-24T02:23:21;94677.19;;;7.12;100.00
63097;BME280;49185;42.320;23.198;2023-05-24T02:25:47;94676.84;;;7.09;100.00
63097;BME280;49185;42.320;23.198;2023-05-24T02:28:13;94671.78;;;7.07;100.00
63097;BME280;49185;42.320;23.198;2023-05-24T02:30:38;94678.56;;;7.03;100.00
63097;BME280;49185;42.320;23.198;2023-05-24T02:33:04;94676.50;;;7.05;100.00
63097;BME280;49185;42.320;23.198;2023-05-24T02:35:29;94684.91;;;7.14;100.00
63097;BME280;49185;42.320;23.198;2023-05-24T02:37:55;94679.63;;;7.14;100.00
63097;BME280;49185;42.320;23.198;2023-05-24T02:40:20;94680.41;;;7.14;100.00
63097;BME280;49185;42.320;23.198;2023-05-24T02:42:46;94678.56;;;7.15;100.00
63097;BME280;49185;42.320;23.198;2023-05-24T02:45:11;94674.66;;;7.17;100.00
63097;BME280;49185;42.320;23.198;2023-05-24T02:47:36;94673.84;;;7.17;100.00
63097;BME280;49185;42.320;23.198;2023-05-24T02:50:02;94669.84;;;7.14;100.00
63097;BME280;49185;42.320;23.198;2023-05-24T02:52:27;94667.41;;;7.36;100.00
63097;BME280;49185;42.320;23.198;2023-05-24T02:54:53;94675.38;;;7.48;100.00
63097;BME280;49185;42.320;23.198;2023-05-24T02:57:18;94661.91;;;7.26;100.00
63097;BME280;49185;42.320;23.198;2023-05-24T02:59:44;94662.34;;;7.11;100.00
63097;BME280;49185;42.320;23.198;2023-05-24T03:02:09;94667.09;;;7.21;100.00
63097;BME280;49185;42.320;23.198;2023-05-24T03:04:34;94669.03;;;7.26;100.00
63097;BME280;49185;42.320;23.198;2023-05-24T03:07:00;94659.69;;;7.11;100.00
63097;BME280;49185;42.320;23.198;2023-05-24T03:09:25;94656.94;;;7.06;100.00
63097;BME280;49185;42.320;23.198;2023-05-24T03:11:51;94656.34;;;7.04;100.00
63097;BME280;49185;42.320;23.198;2023-05-24T03:14:16;94661.41;;;7.06;100.00
63097;BME280;49185;42.320;23.198;2023-05-24T03:16:42;94662.91;;;7.13;100.00
63097;BME280;49185;42.320;23.198;2023-05-24T03:19:07;94655.81;;;7.14;100.00
63097;BME280;49185;42.320;23.198;2023-05-24T03:21:32;94655.44;;;7.22;100.00
63097;BME280;49185;42.320;23.198;2023-05-24T03:23:58;94663.84;;;7.31;100.00
63097;BME280;49185;42.320;23.198;2023-05-24T03:26:23;94657.66;;;7.60;100.00
63097;BME280;49185;42.320;23.198;2023-05-24T03:28:49;94663.69;;;7.96;99.20
63097;BME280;49185;42.320;23.198;2023-05-24T03:31:14;94664.97;;;8.06;97.93
63097;BME280;49185;42.320;23.198;2023-05-24T03:33:40;94667.13;;;8.09;96.41
63097;BME280;49185;42.320;23.198;2023-05-24T03:36:05;94673.66;;;7.66;98.28
63097;BME280;49185;42.320;23.198;2023-05-24T03:38:31;94676.84;;;7.56;99.55
63097;BME280;49185;42.320;23.198;2023-05-24T03:40:56;94678.81;;;8.36;96.00
63097;BME280;49185;42.320;23.198;2023-05-24T03:43:21;94694.34;;;8.85;91.71
63097;BME280;49185;42.320;23.198;2023-05-24T03:45:47;94688.59;;;8.48;93.56
63097;BME280;49185;42.320;23.198;2023-05-24T03:48:12;94697.03;;;8.73;91.44
63097;BME280;49185;42.320;23.198;2023-05-24T03:50:38;94704.97;;;9.02;89.90
63097;BME280;49185;42.320;23.198;2023-05-24T03:53:03;94701.44;;;9.13;88.98
63097;BME280;49185;42.320;23.198;2023-05-24T03:55:29;94705.94;;;8.96;88.97
63097;BME280;49185;42.320;23.198;2023-05-24T03:57:54;94711.28;;;8.55;91.30
63097;BME280;49185;42.320;23.198;2023-05-24T04:00:20;94706.00;;;8.32;92.72
63097;BME280;49185;42.320;23.198;2023-05-24T04:02:45;94716.44;;;8.10;93.40
63097;BME280;49185;42.320;23.198;2023-05-24T04:05:12;94717.66;;;8.31;93.61
63097;BME280;49185;42.320;23.198;2023-05-24T04:07:38;94723.50;;;8.57;92.33
63097;BME280;49185;42.320;23.198;2023-05-24T04:10:05;94725.88;;;8.99;91.52
63097;BME280;49185;42.320;23.198;2023-05-24T04:12:31;94722.06;;;9.40;89.06
63097;BME280;49185;42.320;23.198;2023-05-24T04:14:58;94731.53;;;9.87;86.97
63097;BME280;49185;42.320;23.198;2023-05-24T04:17:23;94731.38;;;10.55;81.96
63097;BME280;49185;42.320;23.198;2023-05-24T04:19:52;94736.00;;;10.87;80.95
63097;BME280;49185;42.320;23.198;2023-05-24T04:22:18;94734.97;;;10.88;81.42
63097;BME280;49185;42.320;23.198;2023-05-24T04:24:44;94725.91;;;10.89;82.43
63097;BME280;49185;42.320;23.198;2023-05-24T04:27:10;94727.25;;;11.46;80.79
63097;BME280;49185;42.320;23.198;2023-05-24T04:29:37;94725.00;;;13.90;74.24
63097;BME280;49185;42.320;23.198;2023-05-24T04:32:03;94714.63;;;15.98;63.36
63097;BME280;49185;42.320;23.198;2023-05-24T04:34:28;94717.97;;;16.62;59.99
63097;BME280;49185;42.320;23.198;2023-05-24T04:36:54;94724.75;;;17.60;57.11
63097;BME280;49185;42.320;23.198;2023-05-24T04:39:20;94716.31;;;18.18;54.77
63097;BME280;49185;42.320;23.198;2023-05-24T04:41:46;94725.72;;;17.69;55.35
63097;BME280;49185;42.320;23.198;2023-05-24T04:44:11;94722.13;;;18.81;52.83
63097;BME280;49185;42.320;23.198;2023-05-24T04:46:36;94725.19;;;18.47;52.39
63097;BME280;49185;42.320;23.198;2023-05-24T04:49:02;94724.03;;;19.45;50.14
63097;BME280;49185;42.320;23.198;2023-05-24T04:51:28;94723.44;;;20.78;46.79
63097;BME280;49185;42.320;23.198;2023-05-24T04:53:53;94722.34;;;21.72;45.46
63097;BME280;49185;42.320;23.198;2023-05-24T04:56:19;94725.75;;;20.62;46.40
63097;BME280;49185;42.320;23.198;2023-05-24T04:58:44;94727.66;;;19.99;47.81
63097;BME280;49185;42.320;23.198;2023-05-24T05:01:09;94735.16;;;21.14;45.86
63097;BME280;49185;42.320;23.198;2023-05-24T05:03:35;94732.00;;;22.08;44.61
63097;BME280;49185;42.320;23.198;2023-05-24T05:06:00;94738.69;;;22.75;42.83
63097;BME280;49185;42.320;23.198;2023-05-24T05:08:26;94736.66;;;23.82;39.35
63097;BME280;49185;42.320;23.198;2023-05-24T05:10:51;94725.91;;;24.07;39.46
63097;BME280;49185;42.320;23.198;2023-05-24T05:13:17;94723.31;;;23.68;38.78
63097;BME280;49185;42.320;23.198;2023-05-24T05:15:42;94730.19;;;26.62;33.14
63097;BME280;49185;42.320;23.198;2023-05-24T05:18:07;94730.88;;;24.05;37.44
63097;BME280;49185;42.320;23.198;2023-05-24T05:20:33;94733.41;;;23.89;37.64
63097;BME280;49185;42.320;23.198;2023-05-24T05:22:58;94731.03;;;24.54;36.46
63097;BME280;49185;42.320;23.198;2023-05-24T05:25:24;94727.53;;;24.33;36.65
63097;BME280;49185;42.320;23.198;2023-05-24T05:27:49;94727.75;;;24.73;36.69
63097;BME280;49185;42.320;23.198;2023-05-24T05:30:14;94730.13;;;23.83;37.54
63097;BME280;49185;42.320;23.198;2023-05-24T05:32:40;94725.44;;;24.05;37.53
63097;BME280;49185;42.320;23.198;2023-05-24T05:35:06;94733.19;;;24.73;36.19
63097;BME280;49185;42.320;23.198;2023-05-24T05:37:32;94733.13;;;24.03;37.80
63097;BME280;49185;42.320;23.198;2023-05-24T05:39:57;94726.44;;;24.34;38.13
63097;BME280;49185;42.320;23.198;2023-05-24T05:42:22;94717.44;;;24.91;37.02
63097;BME280;49185;42.320;23.198;2023-05-24T05:44:48;94729.22;;;24.58;37.13
63097;BME280;49185;42.320;23.198;2023-05-24T05:47:13;94732.94;;;23.66;38.46
63097;BME280;49185;42.320;23.198;2023-05-24T05:49:39;94732.91;;;22.38;41.24
63097;BME280;49185;42.320;23.198;2023-05-24T05:52:04;94735.59;;;23.75;39.31
63097;BME280;49185;42.320;23.198;2023-05-24T05:54:30;94737.47;;;23.02;40.56
63097;BME280;49185;42.320;23.198;2023-05-24T05:56:56;94732.91;;;23.24;39.57
63097;BME280;49185;42.320;23.198;2023-05-24T05:59:21;94728.59;;;24.98;37.29
63097;BME280;49185;42.320;23.198;2023-05-24T06:01:47;94742.25;;;26.77;34.86
63097;BME280;49185;42.320;23.198;2023-05-24T06:04:12;94745.69;;;26.45;34.71
63097;BME280;49185;42.320;23.198;2023-05-24T06:06:38;94738.91;;;26.23;35.51
63097;BME280;49185;42.320;23.198;2023-05-24T06:09:03;94743.31;;;28.49;32.43
63097;BME280;49185;42.320;23.198;2023-05-24T06:11:29;94735.94;;;28.11;31.32
63097;BME280;49185;42.320;23.198;2023-05-24T06:13:54;94744.88;;;29.16;29.44
63097;BME280;49185;42.320;23.198;2023-05-24T06:16:20;94749.91;;;25.33;34.18
63097;BME280;49185;42.320;23.198;2023-05-24T06:18:46;94744.66;;;26.06;34.19
63097;BME280;49185;42.320;23.198;2023-05-24T06:21:12;94745.16;;;25.06;36.88
63097;BME280;49185;42.320;23.198;2023-05-24T06:23:37;94744.56;;;29.21;29.46
63097;BME280;49185;42.320;23.198;2023-05-24T06:26:03;94753.84;;;27.73;32.89
63097;BME280;49185;42.320;23.198;2023-05-24T06:28:28;94748.75;;;28.26;30.94
63097;BME280;49185;42.320;23.198;2023-05-24T06:30:54;94750.31;;;27.53;30.72
63097;BME280;49185;42.320;23.198;2023-05-24T06:33:20;94748.41;;;28.51;31.77
63097;BME280;49185;42.320;23.198;2023-05-24T06:35:45;94747.53;;;26.69;33.38
63097;BME280;49185;42.320;23.198;2023-05-24T06:38:11;94743.22;;;25.31;36.86
63097;BME280;49185;42.320;23.198;2023-05-24T06:40:36;94751.41;;;26.24;36.05
63097;BME280;49185;42.320;23.198;2023-05-24T06:43:02;94746.84;;;27.04;32.21
63097;BME280;49185;42.320;23.198;2023-05-24T06:45:27;94738.50;;;26.53;31.42
63097;BME280;49185;42.320;23.198;2023-05-24T06:47:52;94738.66;;;28.73;29.23
63097;BME280;49185;42.320;23.198;2023-05-24T06:50:18;94727.06;;;29.56;29.19
63097;BME280;49185;42.320;23.198;2023-05-24T06:52:43;94734.75;;;29.73;28.20
63097;BME280;49185;42.320;23.198;2023-05-24T06:55:08;94739.44;;;29.20;28.10
63097;BME280;49185;42.320;23.198;2023-05-24T06:57:34;94734.84;;;27.60;32.83
63097;BME280;49185;42.320;23.198;2023-05-24T06:59:59;94736.44;;;26.62;32.42
63097;BME280;49185;42.320;23.198;2023-05-24T07:02:25;94729.44;;;27.64;30.50
63097;BME280;49185;42.320;23.198;2023-05-24T07:04:50;94726.19;;;30.09;27.70
63097;BME280;49185;42.320;23.198;2023-05-24T07:07:16;94724.09;;;30.70;26.39
63097;BME280;49185;42.320;23.198;2023-05-24T07:09:41;94724.09;;;30.33;27.50
63097;BME280;49185;42.320;23.198;2023-05-24T07:12:07;94715.50;;;29.70;28.43
63097;BME280;49185;42.320;23.198;2023-05-24T07:14:32;94727.00;;;27.23;31.99
63097;BME280;49185;42.320;23.198;2023-05-24T07:16:58;94720.53;;;26.52;33.67
63097;BME280;49185;42.320;23.198;2023-05-24T07:19:23;94709.75;;;25.71;34.51
63097;BME280;49185;42.320;23.198;2023-05-24T07:21:49;94719.16;;;25.86;34.68
63097;BME280;49185;42.320;23.198;2023-05-24T07:24:14;94721.75;;;26.99;33.08
63097;BME280;49185;42.320;23.198;2023-05-24T07:26:40;94722.38;;;28.18;33.21
63097;BME280;49185;42.320;23.198;2023-05-24T07:29:05;94711.50;;;29.37;29.12
63097;BME280;49185;42.320;23.198;2023-05-24T07:31:30;94720.81;;;27.97;31.99
63097;BME280;49185;42.320;23.198;2023-05-24T07:33:56;94720.31;;;26.73;34.58
63097;BME280;49185;42.320;23.198;2023-05-24T07:36:21;94725.59;;;26.98;33.17
63097;BME280;49185;42.320;23.198;2023-05-24T07:38:47;94718.63;;;27.16;33.27
63097;BME280;49185;42.320;23.198;2023-05-24T07:41:12;94709.50;;;27.44;34.66
63097;BME280;49185;42.320;23.198;2023-05-24T07:43:38;94711.69;;;29.78;30.64
63097;BME280;49185;42.320;23.198;2023-05-24T07:46:03;94716.94;;;27.63;32.81
63097;BME280;49185;42.320;23.198;2023-05-24T07:48:29;94711.91;;;26.34;35.28
63097;BME280;49185;42.320;23.198;2023-05-24T07:50:55;94726.47;;;26.86;34.95
63097;BME280;49185;42.320;23.198;2023-05-24T07:53:20;94721.63;;;27.98;33.89
63097;BME280;49185;42.320;23.198;2023-05-24T07:55:45;94711.75;;;27.93;32.67
63097;BME280;49185;42.320;23.198;2023-05-24T07:58:11;94715.63;;;27.57;34.00
63097;BME280;49185;42.320;23.198;2023-05-24T08:00:36;94700.06;;;29.58;31.68
63097;BME280;49185;42.320;23.198;2023-05-24T08:03:02;94708.53;;;30.10;29.85
63097;BME280;49185;42.320;23.198;2023-05-24T08:05:28;94708.78;;;29.67;32.29
63097;BME280;49185;42.320;23.198;2023-05-24T08:07:53;94698.16;;;30.64;28.64
63097;BME280;49185;42.320;23.198;2023-05-24T08:10:19;94701.63;;;29.29;31.91
63097;BME280;49185;42.320;23.198;2023-05-24T08:12:44;94693.81;;;26.89;35.59
63097;BME280;49185;42.320;23.198;2023-05-24T08:15:10;94702.66;;;28.28;34.71
63097;BME280;49185;42.320;23.198;2023-05-24T08:17:37;94697.31;;;28.35;33.92
63097;BME280;49185;42.320;23.198;2023-05-24T08:20:03;94693.00;;;28.81;32.91
63097;BME280;49185;42.320;23.198;2023-05-24T08:22:28;94691.44;;;28.80;32.88
63097;BME280;49185;42.320;23.198;2023-05-24T08:24:54;94690.69;;;29.06;33.76
63097;BME280;49185;42.320;23.198;2023-05-24T08:27:19;94692.28;;;28.18;33.54
63097;BME280;49185;42.320;23.198;2023-05-24T08:29:45;94687.22;;;29.35;31.83
63097;BME280;49185;42.320;23.198;2023-05-24T08:32:10;94686.34;;;28.35;32.92
63097;BME280;49185;42.320;23.198;2023-05-24T08:34:36;94686.41;;;26.42;36.50
63097;BME280;49185;42.320;23.198;2023-05-24T08:37:01;94688.91;;;27.66;37.67
63097;BME280;49185;42.320;23.198;2023-05-24T08:39:26;94687.16;;;27.38;35.97
63097;BME280;49185;42.320;23.198;2023-05-24T08:41:52;94684.84;;;27.24;36.52
63097;BME280;49185;42.320;23.198;2023-05-24T08:44:18;94683.03;;;27.48;38.55
63097;BME280;49185;42.320;23.198;2023-05-24T08:46:45;94681.19;;;28.30;35.29
63097;BME280;49185;42.320;23.198;2023-05-24T08:49:11;94678.44;;;28.53;35.97
63097;BME280;49185;42.320;23.198;2023-05-24T08:51:37;94686.00;;;29.33;33.87
63097;BME280;49185;42.320;23.198;2023-05-24T08:54:04;94679.00;;;28.39;33.81
63097;BME280;49185;42.320;23.198;2023-05-24T08:56:29;94681.97;;;27.53;36.67
63097;BME280;49185;42.320;23.198;2023-05-24T08:58:55;94676.88;;;27.90;35.29
63097;BME280;49185;42.320;23.198;2023-05-24T09:01:23;94678.19;;;27.22;36.07
63097;BME280;49185;42.320;23.198;2023-05-24T09:03:50;94679.38;;;26.89;35.96
63097;BME280;49185;42.320;23.198;2023-05-24T09:06:17;94683.63;;;26.86;38.08
63097;BME280;49185;42.320;23.198;2023-05-24T09:08:43;94669.22;;;26.58;37.71
63097;BME280;49185;42.320;23.198;2023-05-24T09:11:09;94671.25;;;26.29;37.73
63097;BME280;49185;42.320;23.198;2023-05-24T09:13:35;94674.63;;;26.70;36.83
63097;BME280;49185;42.320;23.198;2023-05-24T09:16:01;94673.47;;;25.95;37.74
63097;BME280;49185;42.320;23.198;2023-05-24T09:18:27;94668.75;;;26.24;37.38
63097;BME280;49185;42.320;23.198;2023-05-24T09:20:53;94666.22;;;27.85;35.57
63097;BME280;49185;42.320;23.198;2023-05-24T09:23:18;94674.19;;;28.33;36.96
63097;BME280;49185;42.320;23.198;2023-05-24T09:25:44;94666.19;;;28.67;35.57
63097;BME280;49185;42.320;23.198;2023-05-24T09:28:15;94668.47;;;27.99;36.03
63097;BME280;49185;42.320;23.198;2023-05-24T09:30:56;94670.84;;;27.26;37.82
63097;BME280;49185;42.320;23.198;2023-05-24T09:33:22;94669.22;;;28.38;32.36
63097;BME280;49185;42.320;23.198;2023-05-24T09:35:47;94669.28;;;28.42;32.34
63097;BME280;49185;42.320;23.198;2023-05-24T09:38:17;94667.00;;;28.67;31.84
63097;BME280;49185;42.320;23.198;2023-05-24T09:40:43;94663.84;;;28.92;32.94
63097;BME280;49185;42.320;23.198;2023-05-24T09:43:09;94652.38;;;29.09;31.67
63097;BME280;49185;42.320;23.198;2023-05-24T09:45:46;94663.31;;;28.59;30.21
63097;BME280;49185;42.320;23.198;2023-05-24T09:48:12;94647.38;;;29.42;29.12
63097;BME280;49185;42.320;23.198;2023-05-24T09:50:38;94654.19;;;28.75;31.17
63097;BME280;49185;42.320;23.198;2023-05-24T09:53:04;94644.13;;;29.97;30.11
63097;BME280;49185;42.320;23.198;2023-05-24T09:55:34;94644.03;;;30.27;25.50
63097;BME280;49185;42.320;23.198;2023-05-24T09:58:02;94639.22;;;28.92;29.34
63097;BME280;49185;42.320;23.198;2023-05-24T10:00:28;94637.88;;;29.09;28.46
63097;BME280;49185;42.320;23.198;2023-05-24T10:03:04;94635.22;;;27.97;32.39
63097;BME280;49185;42.320;23.198;2023-05-24T10:05:31;94646.44;;;27.33;34.96
63097;BME280;49185;42.320;23.198;2023-05-24T10:07:57;94642.91;;;28.11;36.26
63097;BME280;49185;42.320;23.198;2023-05-24T10:10:25;94633.97;;;28.56;32.61
63097;BME280;49185;42.320;23.198;2023-05-24T10:12:52;94633.84;;;27.48;33.19
63097;BME280;49185;42.320;23.198;2023-05-24T10:15:19;94632.22;;;28.25;34.38
63097;BME280;49185;42.320;23.198;2023-05-24T10:17:45;94633.28;;;27.97;32.80
63097;BME280;49185;42.320;23.198;2023-05-24T10:20:10;94637.63;;;28.45;33.73
63097;BME280;49185;42.320;23.198;2023-05-24T10:22:41;94644.59;;;28.38;31.80
63097;BME280;49185;42.320;23.198;2023-05-24T10:25:09;94634.84;;;29.44;27.08
63097;BME280;49185;42.320;23.198;2023-05-24T10:27:38;94628.81;;;29.05;28.43
63097;BME280;49185;42.320;23.198;2023-05-24T10:32:49;94624.31;;;31.03;26.93
63097;BME280;49185;42.320;23.198;2023-05-24T10:35:17;94618.13;;;31.17;25.13
63097;BME280;49185;42.320;23.198;2023-05-24T10:37:45;94624.88;;;30.31;25.40
63097;BME280;49185;42.320;23.198;2023-05-24T10:40:21;94618.59;;;29.28;26.89
63097;BME280;49185;42.320;23.198;2023-05-24T10:42:47;94615.50;;;29.30;27.04
63097;BME280;49185;42.320;23.198;2023-05-24T10:47:47;94611.25;;;29.66;28.55
63097;BME280;49185;42.320;23.198;2023-05-24T10:50:20;94606.75;;;31.22;24.96
63097;BME280;49185;42.320;23.198;2023-05-24T10:52:49;94601.41;;;30.85;26.22
63097;BME280;49185;42.320;23.198;2023-05-24T10:55:17;94612.66;;;32.09;24.89
63097;BME280;49185;42.320;23.198;2023-05-24T10:57:43;94607.22;;;32.70;24.35
63097;BME280;49185;42.320;23.198;2023-05-24T11:03:00;94602.34;;;30.52;23.37
63097;BME280;49185;42.320;23.198;2023-05-24T11:08:13;94598.16;;;30.27;24.84
63097;BME280;49185;42.320;23.198;2023-05-24T11:10:39;94587.69;;;30.85;25.97
63097;BME280;49185;42.320;23.198;2023-05-24T11:13:07;94595.19;;;30.43;24.61
63097;BME280;49185;42.320;23.198;2023-05-24T11:15:33;94581.78;;;30.35;26.10
63097;BME280;49185;42.320;23.198;2023-05-24T11:20:34;94587.56;;;30.71;24.47
63097;BME280;49185;42.320;23.198;2023-05-24T11:23:04;94584.75;;;32.39;22.07
63097;BME280;49185;42.320;23.198;2023-05-24T11:25:31;94573.31;;;32.05;20.81
63097;BME280;49185;42.320;23.198;2023-05-24T11:27:57;94573.91;;;30.81;23.33
63097;BME280;49185;42.320;23.198;2023-05-24T11:30:23;94581.28;;;30.70;23.66
63097;BME280;49185;42.320;23.198;2023-05-24T11:32:48;94580.69;;;31.75;22.70
63097;BME280;49185;42.320;23.198;2023-05-24T11:35:13;94577.69;;;32.60;21.06
63097;BME280;49185;42.320;23.198;2023-05-24T11:37:39;94577.69;;;32.78;22.01
63097;BME280;49185;42.320;23.198;2023-05-24T11:40:05;94574.50;;;33.01;20.25
63097;BME280;49185;42.320;23.198;2023-05-24T11:42:32;94567.75;;;33.23;20.92
63097;BME280;49185;42.320;23.198;2023-05-24T11:44:58;94573.09;;;31.47;21.20
63097;BME280;49185;42.320;23.198;2023-05-24T11:47:23;94576.97;;;30.21;21.78
63097;BME280;49185;42.320;23.198;2023-05-24T11:49:50;94566.56;;;30.96;21.36
63097;BME280;49185;42.320;23.198;2023-05-24T11:52:16;94560.75;;;32.68;20.85
63097;BME280;49185;42.320;23.198;2023-05-24T11:54:41;94562.78;;;31.19;22.50
63097;BME280;49185;42.320;23.198;2023-05-24T11:57:10;94552.81;;;29.96;23.21
63097;BME280;49185;42.320;23.198;2023-05-24T11:59:36;94553.81;;;27.90;25.39
63097;BME280;49185;42.320;23.198;2023-05-24T12:02:04;94556.50;;;28.83;24.56
63097;BME280;49185;42.320;23.198;2023-05-24T12:04:30;94550.88;;;28.72;24.40
63097;BME280;49185;42.320;23.198;2023-05-24T12:06:56;94541.88;;;27.56;27.10
63097;BME280;49185;42.320;23.198;2023-05-24T12:09:22;94545.81;;;27.58;29.04
63097;BME280;49185;42.320;23.198;2023-05-24T12:11:49;94548.13;;;28.22;28.38
63097;BME280;49185;42.320;23.198;2023-05-24T12:14:17;94544.38;;;28.07;27.21
63097;BME280;49185;42.320;23.198;2023-05-24T12:16:44;94538.44;;;28.51;27.57
63097;BME280;49185;42.320;23.198;2023-05-24T12:19:19;94536.22;;;28.11;26.23
63097;BME280;49185;42.320;23.198;2023-05-24T12:21:48;94532.53;;;27.80;30.18
63097;BME280;49185;42.320;23.198;2023-05-24T12:24:15;94534.06;;;29.64;25.94
63097;BME280;49185;42.320;23.198;2023-05-24T12:26:43;94527.31;;;30.92;23.58
63097;BME280;49185;42.320;23.198;2023-05-24T12:29:12;94529.84;;;31.33;23.05
63097;BME280;49185;42.320;23.198;2023-05-24T12:31:39;94522.53;;;30.89;23.20
63097;BME280;49185;42.320;23.198;2023-05-24T12:34:05;94521.84;;;29.96;25.04
63097;BME280;49185;42.320;23.198;2023-05-24T12:36:31;94521.53;;;29.67;26.61
63097;BME280;49185;42.320;23.198;2023-05-24T12:38:57;94520.94;;;29.47;25.90
63097;BME280;49185;42.320;23.198;2023-05-24T12:41:22;94517.19;;;28.68;27.25
63097;BME280;49185;42.320;23.198;2023-05-24T12:43:50;94521.09;;;27.51;28.22
63097;BME280;49185;42.320;23.198;2023-05-24T12:46:16;94516.69;;;27.66;30.34
63097;BME280;49185;42.320;23.198;2023-05-24T12:48:41;94528.59;;;26.44;29.86
63097;BME280;49185;42.320;23.198;2023-05-24T12:51:07;94525.91;;;26.12;27.64
63097;BME280;49185;42.320;23.198;2023-05-24T12:53:32;94522.63;;;25.91;27.21
63097;BME280;49185;42.320;23.198;2023-05-24T12:55:58;94522.19;;;26.88;26.36
63097;BME280;49185;42.320;23.198;2023-05-24T12:58:23;94519.50;;;26.21;29.44
63097;BME280;49185;42.320;23.198;2023-05-24T13:00:49;94527.63;;;25.57;30.30
63097;BME280;49185;42.320;23.198;2023-05-24T13:03:14;94522.41;;;25.52;29.69
63097;BME280;49185;42.320;23.198;2023-05-24T13:05:40;94518.78;;;25.48;30.44
63097;BME280;49185;42.320;23.198;2023-05-24T13:08:05;94527.44;;;25.50;29.44
63097;BME280;49185;42.320;23.198;2023-05-24T13:10:31;94533.25;;;25.64;28.70
63097;BME280;49185;42.320;23.198;2023-05-24T13:12:57;94526.56;;;25.33;30.03
63097;BME280;49185;42.320;23.198;2023-05-24T13:15:22;94527.06;;;24.95;31.24